createdAt,value
2022-08-11T00:01:50.939Z,3.03
2022-08-11T00:04:21.146Z,3.13
2022-08-11T00:06:49.586Z,3.00
2022-08-11T00:09:19.607Z,2.72
2022-08-11T00:11:49.048Z,2.67
2022-08-11T00:14:18.049Z,3.10
2022-08-11T00:16:53.669Z,3.00
2022-08-11T00:20:11.757Z,3.10
2022-08-11T00:22:11.842Z,3.08
2022-08-11T00:24:53.897Z,3.42
2022-08-11T00:27:32.445Z,3.35
2022-08-11T00:30:00.071Z,3.22
2022-08-11T00:32:28.803Z,2.72
2022-08-11T00:35:50.820Z,2.97
2022-08-11T00:37:49.354Z,2.90
2022-08-11T00:40:19.642Z,3.05
2022-08-11T00:42:51.655Z,3.13
2022-08-11T00:45:23.301Z,2.72
2022-08-11T00:48:00.398Z,3.28
2022-08-11T00:50:36.034Z,3.10
2022-08-11T00:53:18.988Z,3.00
2022-08-11T00:56:01.532Z,3.20
2022-08-11T00:58:50.798Z,3.35
2022-08-11T01:01:27.347Z,3.63
2022-08-11T01:04:09.873Z,3.60
2022-08-11T01:07:02.249Z,3.30
2022-08-11T01:09:36.711Z,3.85
2022-08-11T01:12:22.035Z,3.90
2022-08-11T01:15:07.051Z,3.75
2022-08-11T01:17:53.318Z,3.70
2022-08-11T01:20:47.269Z,3.58
2022-08-11T01:23:43.446Z,3.65
2022-08-11T01:26:31.801Z,3.88
2022-08-11T01:29:14.320Z,3.85
2022-08-11T01:32:02.565Z,3.72
2022-08-11T01:35:01.135Z,3.45
2022-08-11T01:37:49.605Z,3.65
2022-08-11T01:40:23.270Z,4.22
2022-08-11T01:43:27.249Z,3.88
2022-08-11T01:45:57.963Z,3.90
2022-08-11T01:48:32.120Z,4.63
2022-08-11T01:51:06.220Z,3.72
2022-08-11T01:53:40.161Z,3.97
2022-08-11T01:56:17.486Z,3.70
2022-08-11T01:58:46.832Z,3.92
2022-08-11T02:01:24.976Z,4.03
2022-08-11T02:03:56.271Z,3.97
2022-08-11T02:06:45.929Z,3.78
2022-08-11T02:09:21.330Z,4.05
2022-08-11T02:11:49.568Z,3.75
2022-08-11T02:14:22.349Z,3.47
2022-08-11T02:17:00.077Z,4.18
2022-08-11T02:19:54.037Z,3.83
2022-08-11T02:22:44.396Z,3.80
2022-08-11T02:25:22.961Z,3.60
2022-08-11T02:27:53.299Z,3.40
2022-08-11T02:30:25.249Z,3.95
2022-08-11T02:33:14.143Z,3.55
2022-08-11T02:35:45.963Z,3.70
2022-08-11T02:38:17.807Z,3.60
2022-08-11T02:40:48.857Z,3.85
2022-08-11T02:43:25.072Z,3.72
2022-08-11T02:45:57.654Z,3.97
2022-08-11T02:48:44.429Z,3.92
2022-08-11T02:51:21.124Z,3.85
2022-08-11T02:53:56.454Z,4.13
2022-08-11T02:56:32.816Z,4.00
2022-08-11T02:59:22.193Z,3.72
2022-08-11T03:01:51.042Z,4.05
2022-08-11T03:04:21.745Z,3.90
2022-08-11T03:06:51.388Z,4.15
2022-08-11T03:09:21.308Z,3.75
2022-08-11T03:12:14.394Z,4.22
2022-08-11T03:15:05.425Z,3.92
2022-08-11T03:17:34.973Z,3.80
2022-08-11T03:20:16.073Z,4.00
2022-08-11T03:22:50.438Z,4.10
2022-08-11T03:25:21.178Z,4.53
2022-08-11T03:27:54.044Z,3.75
2022-08-11T03:30:25.727Z,4.45
2022-08-11T03:33:16.573Z,3.95
2022-08-11T03:35:51.360Z,3.90
2022-08-11T03:38:30.602Z,4.10
2022-08-11T03:42:02.671Z,4.43
2022-08-11T03:44:21.252Z,4.45
2022-08-11T03:46:59.967Z,3.60
2022-08-11T03:49:32.187Z,4.05
2022-08-11T03:52:07.674Z,4.03
2022-08-11T03:54:43.985Z,4.05
2022-08-11T03:57:36.575Z,3.60
2022-08-11T04:00:12.527Z,4.40
2022-08-11T04:02:51.713Z,4.22
2022-08-11T04:05:28.029Z,4.57
2022-08-11T04:08:13.217Z,4.45
2022-08-11T04:11:03.264Z,4.25
2022-08-11T04:13:51.477Z,4.60
2022-08-11T04:16:35.899Z,4.32
2022-08-11T04:19:18.775Z,4.38
2022-08-11T04:22:04.848Z,4.13
2022-08-11T04:24:55.102Z,4.38
2022-08-11T04:27:36.996Z,5.13
2022-08-11T04:30:09.159Z,4.35
2022-08-11T04:32:54.828Z,4.53
2022-08-11T04:35:32.328Z,4.47
2022-08-11T04:38:17.736Z,4.07
2022-08-11T04:40:51.775Z,4.60
2022-08-11T04:44:02.452Z,5.07
2022-08-11T04:46:35.304Z,4.28
2022-08-11T04:49:43.910Z,4.22
2022-08-11T04:52:43.802Z,4.53
2022-08-11T04:55:47.665Z,5.13
2022-08-11T04:58:35.758Z,4.97
2022-08-11T05:01:31.823Z,4.93
2022-08-11T05:04:38.237Z,5.38
2022-08-11T05:07:15.441Z,4.60
2022-08-11T05:09:58.265Z,4.50
2022-08-11T05:12:31.054Z,4.72
2022-08-11T05:15:17.523Z,5.10
2022-08-11T05:18:12.789Z,4.57
2022-08-11T05:21:05.023Z,4.70
2022-08-11T05:23:51.212Z,4.65
2022-08-11T05:26:48.022Z,4.47
2022-08-11T05:29:47.434Z,4.57
2022-08-11T05:32:35.720Z,4.30
2022-08-11T05:35:04.359Z,4.57
2022-08-11T05:37:34.622Z,4.45
2022-08-11T05:40:24.055Z,4.53
2022-08-11T05:43:10.058Z,4.55
2022-08-11T05:46:03.096Z,4.28
2022-08-11T05:48:51.002Z,3.80
2022-08-11T05:51:36.257Z,4.25
2022-08-11T05:54:28.462Z,4.30
2022-08-11T05:56:58.676Z,4.45
2022-08-11T05:59:28.395Z,4.40
2022-08-11T06:02:02.492Z,4.28
2022-08-11T06:04:30.352Z,4.07
2022-08-11T06:06:59.458Z,4.32
2022-08-11T06:09:31.943Z,4.38
2022-08-11T06:12:01.630Z,4.55
2022-08-11T06:14:29.840Z,3.70
2022-08-11T06:17:00.241Z,3.95
2022-08-11T06:19:39.824Z,4.05
2022-08-11T06:22:09.112Z,3.80
2022-08-11T06:24:38.966Z,3.60
2022-08-11T06:27:15.071Z,3.85
2022-08-11T06:29:55.190Z,3.78
2022-08-11T06:32:25.379Z,3.58
2022-08-11T06:35:10.880Z,3.75
2022-08-11T06:37:58.747Z,3.63
2022-08-11T06:40:32.241Z,3.70
2022-08-11T06:43:03.196Z,3.65
2022-08-11T06:45:33.717Z,3.70
2022-08-11T06:48:02.986Z,3.05
2022-08-11T06:50:48.782Z,3.25
2022-08-11T06:53:20.937Z,3.40
2022-08-11T06:56:07.508Z,3.33
2022-08-11T06:58:54.564Z,3.67
2022-08-11T07:01:28.287Z,3.65
2022-08-11T07:03:59.422Z,3.45
2022-08-11T07:06:34.488Z,3.22
2022-08-11T07:09:51.219Z,3.40
2022-08-11T07:13:07.588Z,3.10
2022-08-11T07:16:10.837Z,3.42
2022-08-11T07:18:49.154Z,3.17
2022-08-11T07:21:43.100Z,3.15
2022-08-11T07:24:59.401Z,3.03
2022-08-11T07:27:51.243Z,3.20
2022-08-11T07:30:18.881Z,3.40
2022-08-11T07:32:48.817Z,3.28
2022-08-11T07:35:17.957Z,3.30
2022-08-11T07:38:01.435Z,2.92
2022-08-11T07:40:31.718Z,3.30
2022-08-11T07:43:00.896Z,3.22
2022-08-11T07:45:46.172Z,3.05
2022-08-11T07:48:31.757Z,2.97
2022-08-11T07:51:17.606Z,3.10
2022-08-11T07:53:58.766Z,3.10
2022-08-11T07:56:49.828Z,2.85
2022-08-11T07:59:58.572Z,2.97
2022-08-11T08:02:43.947Z,2.83
2022-08-11T08:05:29.069Z,2.85
2022-08-11T08:08:14.576Z,3.08
2022-08-11T08:11:02.279Z,2.83
2022-08-11T08:13:50.684Z,3.15
2022-08-11T08:16:35.778Z,2.83
2022-08-11T08:19:03.425Z,2.95
2022-08-11T08:21:32.144Z,3.13
2022-08-11T08:23:59.772Z,2.90
2022-08-11T08:26:51.467Z,2.90
2022-08-11T08:29:38.967Z,2.97
2022-08-11T08:32:08.014Z,2.80
2022-08-11T08:34:36.415Z,2.80
2022-08-11T08:37:16.122Z,2.70
2022-08-11T08:39:53.640Z,2.53
2022-08-11T08:42:24.956Z,2.83
2022-08-11T08:44:58.837Z,2.83
2022-08-11T08:47:42.159Z,2.88
2022-08-11T08:50:16.899Z,2.45
2022-08-11T08:52:47.260Z,2.80
2022-08-11T08:55:18.295Z,2.58
2022-08-11T08:57:47.153Z,2.63
2022-08-11T09:00:22.278Z,2.70
2022-08-11T09:02:51.223Z,2.85
2022-08-11T09:05:19.199Z,2.90
2022-08-11T09:07:48.524Z,2.80
2022-08-11T09:10:17.267Z,2.42
2022-08-11T09:12:45.050Z,2.47
2022-08-11T09:15:14.102Z,2.80
2022-08-11T09:17:45.619Z,2.50
2022-08-11T09:20:14.184Z,2.50
2022-08-11T09:26:07.078Z,2.40
2022-08-11T09:28:35.649Z,2.42
2022-08-11T09:31:03.681Z,2.47
2022-08-11T09:33:32.749Z,2.30
2022-08-11T09:36:21.900Z,2.30
2022-08-11T09:39:07.416Z,2.55
2022-08-11T09:42:00.414Z,2.70
2022-08-11T09:44:41.617Z,2.40
2022-08-11T09:47:15.522Z,2.20
2022-08-11T09:49:45.463Z,2.60
2022-08-11T09:52:14.311Z,2.25
2022-08-11T09:54:48.142Z,2.00
2022-08-11T09:57:33.994Z,2.33
2022-08-11T10:00:12.941Z,2.13
2022-08-11T10:02:43.351Z,2.20
2022-08-11T10:05:30.313Z,2.55
2022-08-11T10:07:58.240Z,2.30
2022-08-11T10:10:26.094Z,2.00
2022-08-11T10:12:57.329Z,2.30
2022-08-11T10:15:38.329Z,2.38
2022-08-11T10:18:25.242Z,2.33
2022-08-11T10:20:56.565Z,2.45
2022-08-11T10:24:01.253Z,2.45
2022-08-11T10:26:50.829Z,2.60
2022-08-11T10:29:36.907Z,2.45
2022-08-11T10:32:25.642Z,2.15
2022-08-11T10:35:00.424Z,2.30
2022-08-11T10:38:07.753Z,2.17
2022-08-11T10:40:23.322Z,2.13
2022-08-11T10:43:03.042Z,2.28
2022-08-11T10:45:49.027Z,2.20
2022-08-11T10:48:18.333Z,2.13
2022-08-11T10:51:04.666Z,2.22
2022-08-11T10:53:51.701Z,2.10
2022-08-11T10:56:38.178Z,2.13
2022-08-11T10:59:08.955Z,2.13
2022-08-11T11:01:39.011Z,2.25
2022-08-11T11:04:10.773Z,2.00
2022-08-11T11:06:44.951Z,2.15
2022-08-11T11:09:15.865Z,2.00
2022-08-11T11:12:02.573Z,1.90
2022-08-11T11:14:56.424Z,2.03
2022-08-11T11:17:46.538Z,2.47
2022-08-11T11:20:36.713Z,2.20
2022-08-11T11:23:05.809Z,2.20
2022-08-11T11:26:06.475Z,2.20
2022-08-11T11:28:44.302Z,2.20
2022-08-11T11:31:22.612Z,2.03
2022-08-11T11:34:12.010Z,1.95
2022-08-11T11:36:44.970Z,2.50
2022-08-11T11:39:12.901Z,2.00
2022-08-11T11:41:42.094Z,2.05
2022-08-11T11:44:12.926Z,2.10
2022-08-11T11:46:40.960Z,2.20
2022-08-11T11:49:16.914Z,2.28
2022-08-11T11:51:45.625Z,2.00
2022-08-11T11:54:18.353Z,2.15
2022-08-11T11:56:46.462Z,1.98
2022-08-11T11:59:33.489Z,2.00
2022-08-11T12:02:01.822Z,2.22
2022-08-11T12:04:43.035Z,2.00
2022-08-11T12:07:28.853Z,2.00
2022-08-11T12:09:56.841Z,1.92
2022-08-11T12:12:41.856Z,2.00
2022-08-11T12:15:11.323Z,2.13
2022-08-11T12:17:39.310Z,2.08
2022-08-11T12:20:30.790Z,1.98
2022-08-11T12:23:14.759Z,2.08
2022-08-11T12:26:25.160Z,1.92
2022-08-11T12:28:49.012Z,2.05
2022-08-11T12:31:18.216Z,1.75
2022-08-11T12:33:47.156Z,2.20
2022-08-11T12:36:16.389Z,1.88
2022-08-11T12:38:45.468Z,2.28
2022-08-11T12:41:45.641Z,2.13
2022-08-11T12:44:32.836Z,1.83
2022-08-11T12:47:02.433Z,2.30
2022-08-11T12:49:49.828Z,2.00
2022-08-11T12:52:21.585Z,2.15
2022-08-11T12:54:59.758Z,2.33
2022-08-11T12:57:47.546Z,1.90
2022-08-11T13:00:33.013Z,2.00
2022-08-11T13:03:20.485Z,2.05
2022-08-11T13:05:49.581Z,2.17
2022-08-11T13:08:17.856Z,2.10
2022-08-11T13:11:03.645Z,2.15
2022-08-11T13:13:53.697Z,2.00
2022-08-11T13:16:20.675Z,2.00
2022-08-11T13:18:50.868Z,1.77
2022-08-11T13:21:21.179Z,2.05
2022-08-11T13:24:00.439Z,2.00
2022-08-11T13:26:47.191Z,1.90
2022-08-11T13:29:21.049Z,1.83
2022-08-11T13:31:49.199Z,2.00
2022-08-11T13:34:20.061Z,1.95
2022-08-11T13:36:48.894Z,2.10
2022-08-11T13:39:16.970Z,1.88
2022-08-11T13:41:46.765Z,2.05
2022-08-11T13:44:18.198Z,1.80
2022-08-11T13:46:48.958Z,2.00
2022-08-11T13:49:22.255Z,2.20
2022-08-11T13:51:50.156Z,2.00
2022-08-11T13:54:18.789Z,2.00
2022-08-11T13:56:48.023Z,1.80
2022-08-11T13:59:16.568Z,1.90
2022-08-11T14:02:22.975Z,1.88
2022-08-11T14:04:41.394Z,2.00
2022-08-11T14:07:10.816Z,2.00
2022-08-11T14:09:40.622Z,2.10
2022-08-11T14:12:27.255Z,2.10
2022-08-11T14:15:02.215Z,2.05
2022-08-11T14:17:47.104Z,2.08
2022-08-11T14:20:38.593Z,1.80
2022-08-11T14:23:06.133Z,2.10
2022-08-11T14:26:00.520Z,1.90
2022-08-11T14:28:31.621Z,2.08
2022-08-11T14:31:02.267Z,2.47
2022-08-11T14:33:58.716Z,1.83
2022-08-11T14:36:19.528Z,1.73
2022-08-11T14:38:47.259Z,2.05
2022-08-11T14:41:32.176Z,1.90
2022-08-11T14:44:17.711Z,1.77
2022-08-11T14:47:03.330Z,2.00
2022-08-11T14:49:31.377Z,1.90
2022-08-11T14:52:00.798Z,1.73
2022-08-11T14:54:47.892Z,2.00
2022-08-11T14:57:15.635Z,2.20
2022-08-11T14:59:43.745Z,1.80
2022-08-11T15:02:29.279Z,1.90
2022-08-11T15:04:59.483Z,1.80
2022-08-11T15:07:30.578Z,2.00
2022-08-11T15:10:14.347Z,1.90
2022-08-11T15:12:43.217Z,1.90
2022-08-11T15:15:29.625Z,1.70
2022-08-11T15:17:58.180Z,2.30
2022-08-11T15:20:44.715Z,1.92
2022-08-11T15:23:31.343Z,2.05
2022-08-11T15:26:00.373Z,1.90
2022-08-11T15:28:46.447Z,2.10
2022-08-11T15:31:37.798Z,2.00
2022-08-11T15:34:29.148Z,1.90
2022-08-11T15:37:16.058Z,2.03
2022-08-11T15:40:03.103Z,2.40
2022-08-11T15:42:48.596Z,1.90
2022-08-11T15:45:36.248Z,1.95
2022-08-11T15:48:06.336Z,1.90
2022-08-11T15:50:34.962Z,2.20
2022-08-11T15:53:04.109Z,2.10
2022-08-11T15:55:35.078Z,2.10
2022-08-11T15:58:20.335Z,2.05
2022-08-11T16:01:08.991Z,2.00
2022-08-11T16:04:06.622Z,2.10
2022-08-11T16:06:36.737Z,1.95
2022-08-11T16:09:18.406Z,1.75
2022-08-11T16:11:49.675Z,2.30
2022-08-11T16:14:35.983Z,1.83
2022-08-11T16:17:04.932Z,1.95
2022-08-11T16:19:36.003Z,1.90
2022-08-11T16:22:07.282Z,1.80
2022-08-11T16:27:05.818Z,2.08
2022-08-11T16:27:25.883Z,2.30
2022-08-11T16:29:54.725Z,2.15
2022-08-11T16:32:23.445Z,1.98
2022-08-11T16:35:11.453Z,2.25
2022-08-11T16:37:56.909Z,2.08
2022-08-11T16:40:25.287Z,2.00
2022-08-11T16:43:12.166Z,2.22
2022-08-11T16:46:00.288Z,2.30
2022-08-11T16:48:36.635Z,2.25
2022-08-11T16:51:06.448Z,2.00
2022-08-11T16:53:47.370Z,2.10
2022-08-11T16:56:22.870Z,2.00
2022-08-11T16:59:12.717Z,2.15
2022-08-11T17:01:40.471Z,2.05
2022-08-11T17:04:31.315Z,2.00
2022-08-11T17:07:41.872Z,2.08
2022-08-11T17:10:51.662Z,2.45
2022-08-11T17:13:21.865Z,1.77
2022-08-11T17:16:11.742Z,1.95
2022-08-11T17:18:44.230Z,1.90
2022-08-11T17:21:20.210Z,2.25
2022-08-11T17:23:50.095Z,2.00
2022-08-11T17:26:18.955Z,2.00
2022-08-11T17:28:51.381Z,1.85
2022-08-11T17:31:38.034Z,2.20
2022-08-11T17:34:23.688Z,1.92
2022-08-11T17:36:51.898Z,2.30
2022-08-11T17:39:19.839Z,2.00
2022-08-11T17:42:04.914Z,1.95
2022-08-11T17:44:50.439Z,2.00
2022-08-11T17:47:37.959Z,1.90
2022-08-11T17:50:09.527Z,1.95
2022-08-11T17:53:02.257Z,2.10
2022-08-11T17:55:52.103Z,2.00
2022-08-11T17:58:39.285Z,2.00
2022-08-11T18:01:09.213Z,1.80
2022-08-11T18:03:40.774Z,1.80
2022-08-11T18:06:12.623Z,1.98
2022-08-11T18:08:59.740Z,2.20
2022-08-11T18:12:10.642Z,2.15
2022-08-11T18:14:51.437Z,2.00
2022-08-11T18:17:36.556Z,1.98
2022-08-11T18:20:24.372Z,2.13
2022-08-11T18:23:10.826Z,2.60
2022-08-11T18:25:58.407Z,2.20
2022-08-11T18:28:46.182Z,2.10
2022-08-11T18:31:33.848Z,2.08
2022-08-11T18:34:23.279Z,2.05
2022-08-11T18:37:19.944Z,2.20
2022-08-11T18:40:09.198Z,2.22
2022-08-11T18:42:55.473Z,2.17
2022-08-11T18:45:45.355Z,2.50
2022-08-11T18:48:34.226Z,2.10
2022-08-11T18:51:31.762Z,2.05
2022-08-11T18:54:26.034Z,2.20
2022-08-11T18:57:11.879Z,1.90
2022-08-11T18:59:58.893Z,2.00
2022-08-11T19:02:48.245Z,1.80
2022-08-11T19:06:31.854Z,2.10
2022-08-11T19:08:42.133Z,2.17
2022-08-11T19:11:29.779Z,2.13
2022-08-11T19:14:14.829Z,3.67
2022-08-11T19:17:00.574Z,3.10
2022-08-11T19:19:47.659Z,2.30
2022-08-11T19:22:34.341Z,2.10
2022-08-11T19:25:25.135Z,2.10
2022-08-11T19:28:12.786Z,1.95
2022-08-11T19:30:58.485Z,2.10
2022-08-11T19:34:02.730Z,1.88
2022-08-11T19:36:49.669Z,2.40
2022-08-11T19:39:35.233Z,1.70
2022-08-11T19:42:21.189Z,2.00
2022-08-11T19:45:08.198Z,2.00
2022-08-11T19:48:14.106Z,2.08
2022-08-11T19:50:59.284Z,2.05
2022-08-11T19:53:46.561Z,2.20
2022-08-11T19:56:32.822Z,2.00
2022-08-11T19:59:18.031Z,2.08
2022-08-11T20:02:13.549Z,2.00
2022-08-11T20:04:59.398Z,1.95
2022-08-11T20:07:44.515Z,2.17
2022-08-11T20:10:29.564Z,2.03
2022-08-11T20:13:19.166Z,2.20
2022-08-11T20:16:07.422Z,2.00
2022-08-11T20:18:54.981Z,2.10
2022-08-11T20:21:40.136Z,1.80
2022-08-11T20:24:26.306Z,2.58
2022-08-11T20:27:18.852Z,2.08
2022-08-11T20:30:10.121Z,2.10
2022-08-11T20:32:56.046Z,2.08
2022-08-11T20:35:42.965Z,2.40
2022-08-11T20:38:28.016Z,2.00
2022-08-11T20:41:16.199Z,2.47
2022-08-11T20:44:07.779Z,2.30
2022-08-11T20:46:54.785Z,2.25
2022-08-11T20:49:50.376Z,2.05
2022-08-11T20:52:38.815Z,2.15
2022-08-11T20:55:26.018Z,3.03
2022-08-11T20:58:49.133Z,2.63
2022-08-11T21:01:39.001Z,2.50
2022-08-11T21:04:26.328Z,2.60
2022-08-11T21:07:12.197Z,2.70
2022-08-11T21:10:09.731Z,3.00
2022-08-11T21:12:57.915Z,2.50
2022-08-11T21:16:03.707Z,2.60
2022-08-11T21:18:51.515Z,2.38
2022-08-11T21:21:45.692Z,2.30
2022-08-11T21:24:33.052Z,2.38
2022-08-11T21:27:21.753Z,2.47
2022-08-11T21:30:11.145Z,2.47
2022-08-11T21:32:56.192Z,2.75
2022-08-11T21:35:45.411Z,2.60
2022-08-11T21:38:30.832Z,2.65
2022-08-11T21:41:16.357Z,2.60
2022-08-11T21:44:03.955Z,2.45
2022-08-11T21:46:54.992Z,2.70
2022-08-11T21:49:41.645Z,2.50
2022-08-11T21:52:26.971Z,2.35
2022-08-11T21:55:12.433Z,2.50
2022-08-11T21:57:58.804Z,2.60
2022-08-11T22:00:45.356Z,2.50
2022-08-11T22:03:30.941Z,2.60
2022-08-11T22:06:24.665Z,2.30
2022-08-11T22:09:10.162Z,2.30
2022-08-11T22:12:29.561Z,2.60
2022-08-11T22:15:00.944Z,2.60
2022-08-11T22:17:47.634Z,2.20
2022-08-11T22:20:32.755Z,2.70
2022-08-11T22:23:18.124Z,2.30
2022-08-11T22:26:07.050Z,2.17
2022-08-11T22:28:52.718Z,2.72
2022-08-11T22:31:38.447Z,2.47
2022-08-11T22:34:25.462Z,2.45
2022-08-11T22:37:10.983Z,2.70
2022-08-11T22:40:12.420Z,2.78
2022-08-11T22:42:57.616Z,2.40
2022-08-11T22:45:42.837Z,2.47
2022-08-11T22:48:28.144Z,2.55
2022-08-11T22:51:16.430Z,2.67
2022-08-11T22:54:01.783Z,2.83
2022-08-11T22:56:48.733Z,2.55
2022-08-11T22:59:34.576Z,2.80
2022-08-11T23:02:19.914Z,2.70
2022-08-11T23:05:05.840Z,2.88
2022-08-11T23:07:52.462Z,2.65
2022-08-11T23:10:38.175Z,2.70
2022-08-11T23:13:23.299Z,2.97
2022-08-11T23:16:08.670Z,3.25
2022-08-11T23:18:53.860Z,2.65
2022-08-11T23:21:39.282Z,2.78
2022-08-11T23:24:26.451Z,2.85
2022-08-11T23:27:13.082Z,2.70
2022-08-11T23:30:00.025Z,2.70
2022-08-11T23:32:45.787Z,2.83
2022-08-11T23:35:39.278Z,2.78
2022-08-11T23:38:26.351Z,2.75
2022-08-11T23:41:13.006Z,2.53
2022-08-11T23:43:57.922Z,2.90
2022-08-11T23:46:44.207Z,2.90
2022-08-11T23:49:29.339Z,2.80
2022-08-11T23:52:15.298Z,2.60
2022-08-11T23:55:00.815Z,2.78
2022-08-11T23:57:48.836Z,2.70
